createdAt,value
2023-08-25T03:08:15.704Z,18.25
2023-08-25T03:10:15.696Z,18.24
2023-08-25T03:12:15.644Z,18.26
2023-08-25T03:14:15.617Z,18.28
2023-08-25T03:16:15.712Z,18.26
2023-08-25T03:18:15.635Z,18.2
2023-08-25T03:20:15.695Z,18.03
2023-08-25T03:23:55.966Z,18.2
2023-08-25T03:25:56.111Z,18.2
2023-08-25T03:27:56.102Z,18.21
2023-08-25T03:29:55.910Z,18.2
2023-08-25T03:31:56.045Z,18.17
2023-08-25T03:33:55.962Z,18.22
2023-08-25T03:35:55.945Z,18.18
2023-08-25T03:38:27.312Z,18.15
2023-08-25T03:40:27.258Z,18.14
2023-08-25T03:42:27.256Z,18.07
2023-08-25T03:44:27.231Z,18.04
2023-08-25T03:46:27.240Z,18.08
2023-08-25T03:48:27.191Z,18.11
2023-08-25T03:50:27.270Z,18.17
2023-08-25T03:52:27.209Z,18.19
2023-08-25T03:53:43.856Z,18.2
2023-08-25T03:55:44.125Z,18.25
2023-08-25T03:57:43.870Z,18.31
2023-08-25T03:59:43.764Z,18.35
2023-08-25T04:01:43.931Z,18.48
2023-08-25T04:03:43.799Z,18.53
2023-08-25T04:05:43.778Z,18.59
2023-08-25T04:09:02.730Z,18.68
2023-08-25T04:11:02.712Z,18.78
2023-08-25T04:13:02.712Z,18.9
2023-08-25T04:15:02.754Z,19
2023-08-25T04:17:02.697Z,19.12
2023-08-25T04:19:03.230Z,19.23
2023-08-25T04:21:02.805Z,19.36
2023-08-25T04:23:57.938Z,19.26
2023-08-25T04:25:57.905Z,19.35
2023-08-25T04:27:57.962Z,19.55
2023-08-25T04:29:57.900Z,19.93
2023-08-25T04:31:57.901Z,20.51
2023-08-25T04:33:57.905Z,21.48
2023-08-25T04:35:57.898Z,22.09
2023-08-25T04:39:19.875Z,22.16
2023-08-25T04:41:19.800Z,22.48
2023-08-25T04:43:19.794Z,23.35
2023-08-25T04:45:19.983Z,24.85
2023-08-25T04:47:19.765Z,25.37
2023-08-25T04:49:19.774Z,25.71
2023-08-25T04:51:19.767Z,25.44
2023-08-25T04:54:18.610Z,24.42
2023-08-25T04:56:18.562Z,24.3
2023-08-25T04:58:19.635Z,25.18
2023-08-25T05:00:19.067Z,25.42
2023-08-25T05:02:18.998Z,23.58
2023-08-25T05:04:18.718Z,22.54
2023-08-25T05:06:18.561Z,21.81
2023-08-25T05:10:02.061Z,21.58
2023-08-25T05:12:01.962Z,21.68
2023-08-25T05:14:02.026Z,21.3
2023-08-25T05:16:02.364Z,20.98
2023-08-25T05:18:02.384Z,21.03
2023-08-25T05:20:02.082Z,21
2023-08-25T05:22:02.287Z,20.96
2023-08-25T05:24:40.129Z,20.99
2023-08-25T05:26:40.089Z,21.05
2023-08-25T05:28:39.967Z,21.22
2023-08-25T05:30:40.613Z,21.38
2023-08-25T05:32:39.973Z,21.44
2023-08-25T05:34:40.069Z,21.34
2023-08-25T05:36:39.978Z,21.36
2023-08-25T05:40:01.398Z,21.72
2023-08-25T05:42:01.298Z,21.66
2023-08-25T05:44:01.373Z,21.16
2023-08-25T05:46:01.357Z,20.91
2023-08-25T05:48:01.319Z,20.89
2023-08-25T05:50:01.290Z,20.81
2023-08-25T05:52:01.328Z,20.79
2023-08-25T05:55:13.818Z,20.38
2023-08-25T05:57:13.714Z,20.88
2023-08-25T05:59:13.675Z,20.75
2023-08-25T06:01:13.729Z,21
2023-08-25T06:03:14.248Z,21.24
2023-08-25T06:05:13.662Z,21.35
2023-08-25T06:07:13.677Z,21.56
2023-08-25T06:10:29.635Z,21.9
2023-08-25T06:12:29.574Z,21.57
2023-08-25T06:14:29.588Z,21.88
2023-08-25T06:16:29.643Z,22
2023-08-25T06:18:29.595Z,21.84
2023-08-25T06:20:29.585Z,21.93
2023-08-25T06:22:30.085Z,21.99
2023-08-25T06:25:38.961Z,22.14
2023-08-25T06:27:39.073Z,22.15
2023-08-25T06:29:38.937Z,22.26
2023-08-25T06:31:39.008Z,22.16
2023-08-25T06:33:38.999Z,21.96
2023-08-25T06:35:39.041Z,21.56
2023-08-25T06:37:38.948Z,21.41
2023-08-25T06:40:49.833Z,21.47
2023-08-25T06:42:49.914Z,21.82
2023-08-25T06:44:49.858Z,21.99
2023-08-25T06:46:49.903Z,22.69
2023-08-25T06:48:49.981Z,22.52
2023-08-25T06:50:49.829Z,22.3
2023-08-25T06:52:49.969Z,22.04
2023-08-25T06:56:05.635Z,22.89
2023-08-25T06:58:05.766Z,23.02
2023-08-25T07:00:05.564Z,23.29
2023-08-25T07:02:05.511Z,22.84
2023-08-25T07:04:05.544Z,23.41
2023-08-25T07:06:05.541Z,22.71
2023-08-25T07:08:05.531Z,23.28
2023-08-25T07:11:11.828Z,23.25
2023-08-25T07:13:11.895Z,23.24
2023-08-25T07:15:11.825Z,23.77
2023-08-25T07:17:11.833Z,23.8
2023-08-25T07:19:13.988Z,23.62
2023-08-25T07:21:11.851Z,23.64
2023-08-25T07:23:11.896Z,23.67
2023-08-25T07:26:40.862Z,23.14
2023-08-25T07:28:41.038Z,23.18
2023-08-25T07:30:40.807Z,23.39
2023-08-25T07:32:40.860Z,23.11
2023-08-25T07:34:40.942Z,23.18
2023-08-25T07:36:40.807Z,22.93
2023-08-25T07:38:40.857Z,23.26
2023-08-25T07:41:17.840Z,23.85
2023-08-25T07:43:17.639Z,24.3
2023-08-25T07:45:17.665Z,24.69
2023-08-25T07:47:17.720Z,24.69
2023-08-25T07:49:17.611Z,24.8
2023-08-25T07:51:21.474Z,25.37
2023-08-25T07:53:17.616Z,25.32
2023-08-25T07:56:09.809Z,25.81
2023-08-25T07:58:09.865Z,25.77
2023-08-25T08:00:09.916Z,25.95
2023-08-25T08:02:09.923Z,26.18
2023-08-25T08:04:10.112Z,26.08
2023-08-25T08:06:09.835Z,25.89
2023-08-25T08:08:09.838Z,25.86
2023-08-25T08:10:09.832Z,26.32
2023-08-25T08:11:47.242Z,26.83
2023-08-25T08:13:47.159Z,26.69
2023-08-25T08:15:47.548Z,27
2023-08-25T08:17:47.219Z,27.39
2023-08-25T08:19:47.198Z,27.67
2023-08-25T08:21:47.295Z,27.93
2023-08-25T08:23:47.177Z,28.06
2023-08-25T08:26:45.509Z,28.18
2023-08-25T08:28:45.463Z,28.13
2023-08-25T08:32:45.490Z,28.15
2023-08-25T08:34:45.466Z,28.24
2023-08-25T08:36:45.450Z,28.02
2023-08-25T08:38:45.460Z,28.54
2023-08-25T08:41:49.358Z,28.61
2023-08-25T08:43:49.525Z,28.62
2023-08-25T08:45:49.366Z,28.84
2023-08-25T08:47:49.347Z,28.92
2023-08-25T08:49:49.472Z,28.76
2023-08-25T08:51:49.550Z,28.93
2023-08-25T08:53:49.321Z,29.06
2023-08-25T08:55:49.668Z,29.35
2023-08-25T08:57:52.140Z,29.41
2023-08-25T08:59:51.975Z,29.46
2023-08-25T09:01:52.264Z,29.71
2023-08-25T09:03:52.026Z,29.7
2023-08-25T09:05:51.950Z,29.77
2023-08-25T09:07:52.231Z,29.5
2023-08-25T09:09:52.061Z,29.69
2023-08-25T09:12:43.286Z,29.89
2023-08-25T09:14:43.277Z,29.89
2023-08-25T09:16:43.252Z,29.87
2023-08-25T09:18:43.263Z,30.08
2023-08-25T09:20:43.315Z,29.99
2023-08-25T09:22:43.232Z,30.28
2023-08-25T09:24:43.195Z,30.46
2023-08-25T09:27:27.588Z,30.04
2023-08-25T09:29:27.725Z,30.42
2023-08-25T09:31:27.581Z,30.43
2023-08-25T09:33:27.590Z,30.2
2023-08-25T09:35:27.625Z,30.43
2023-08-25T09:37:27.554Z,30.87
2023-08-25T09:39:27.711Z,30.74
2023-08-25T09:43:07.719Z,30.74
2023-08-25T09:45:07.874Z,30.71
2023-08-25T09:47:07.872Z,30.85
2023-08-25T09:49:07.717Z,30.85
2023-08-25T09:51:08.031Z,30.96
2023-08-25T09:53:07.776Z,30.5
2023-08-25T09:55:07.700Z,30.9
2023-08-25T09:57:39.910Z,31.45
2023-08-25T09:59:39.874Z,31.6
2023-08-25T10:01:40.002Z,31.79
2023-08-25T10:03:40.473Z,31.9
2023-08-25T10:05:40.050Z,31.8
2023-08-25T10:07:39.970Z,30.91
2023-08-25T10:09:40.100Z,31.25
2023-08-25T10:11:39.869Z,31.53
2023-08-25T10:12:47.519Z,30.93
2023-08-25T10:14:47.553Z,30.82
2023-08-25T10:16:47.342Z,30.85
2023-08-25T10:18:47.343Z,30.66
2023-08-25T10:20:47.359Z,30.92
2023-08-25T10:22:47.307Z,31.43
2023-08-25T10:24:47.355Z,31.75
2023-08-25T10:26:47.696Z,31.92
2023-08-25T10:28:51.008Z,32.18
2023-08-25T10:30:50.976Z,32.18
2023-08-25T10:32:51.002Z,31.03
2023-08-25T10:34:51.113Z,31.2
2023-08-25T10:36:51.019Z,31.19
2023-08-25T10:38:51.016Z,31.2
2023-08-25T10:40:51.003Z,30.99
2023-08-25T10:43:08.426Z,31.1
2023-08-25T10:45:08.428Z,31.24
2023-08-25T10:47:08.377Z,31.38
2023-08-25T10:49:10.300Z,31.12
2023-08-25T10:51:08.476Z,31.3
2023-08-25T10:53:08.355Z,31.55
2023-08-25T10:55:08.549Z,31.93
2023-08-25T10:57:08.364Z,31.58
2023-08-25T10:58:20.830Z,31.52
2023-08-25T11:00:20.898Z,31.35
2023-08-25T11:02:20.828Z,31.26
2023-08-25T11:04:20.886Z,31.3
2023-08-25T11:06:20.891Z,31.91
2023-08-25T11:08:20.828Z,31.98
2023-08-25T11:10:20.760Z,32.09
2023-08-25T11:12:20.783Z,31.7
2023-08-25T11:14:20.652Z,31.59
2023-08-25T11:16:20.671Z,32.03
2023-08-25T11:18:20.773Z,31.98
2023-08-25T11:20:20.668Z,32.23
2023-08-25T11:22:20.986Z,32.47
2023-08-25T11:24:20.614Z,32.53
2023-08-25T11:26:20.687Z,32.34
2023-08-25T11:29:06.151Z,32.59
2023-08-25T11:31:06.073Z,32.6
2023-08-25T11:33:06.071Z,32.62
2023-08-25T11:35:06.078Z,32.71
2023-08-25T11:37:06.053Z,32.39
2023-08-25T11:39:06.080Z,32.42
2023-08-25T11:41:06.134Z,32.25
2023-08-25T11:44:13.471Z,31.67
2023-08-25T11:46:13.511Z,31.8
2023-08-25T11:48:13.492Z,32.16
2023-08-25T11:50:13.503Z,32.14
2023-08-25T11:52:13.483Z,32.45
2023-08-25T11:54:13.526Z,32.32
2023-08-25T11:56:13.432Z,32.16
2023-08-25T11:59:41.961Z,32.32
2023-08-25T12:01:41.884Z,32.34
2023-08-25T12:03:41.879Z,32.3
2023-08-25T12:05:42.277Z,31.79
2023-08-25T12:07:41.994Z,31.41
2023-08-25T12:09:41.904Z,31.48
2023-08-25T12:11:41.959Z,31.54
2023-08-25T12:14:17.420Z,31.46
2023-08-25T12:16:17.453Z,31.49
2023-08-25T12:18:17.489Z,31.58
2023-08-25T12:20:17.432Z,31.79
2023-08-25T12:22:17.504Z,31.8
2023-08-25T12:24:17.430Z,32.04
2023-08-25T12:26:17.444Z,31.93
2023-08-25T12:28:17.652Z,32.18
2023-08-25T12:29:31.514Z,32.22
2023-08-25T12:31:31.550Z,32.34
2023-08-25T12:33:33.088Z,32.29
2023-08-25T12:35:31.439Z,32.39
2023-08-25T12:37:31.415Z,32.44
2023-08-25T12:39:31.497Z,32.52
2023-08-25T12:41:31.471Z,32.56
2023-08-25T12:45:23.941Z,32.54
2023-08-25T12:47:23.825Z,32.61
2023-08-25T12:49:23.868Z,32.42
2023-08-25T12:51:23.814Z,32.53
2023-08-25T12:53:23.783Z,32.32
2023-08-25T12:55:23.764Z,32.4
2023-08-25T12:57:23.785Z,32.54
2023-08-25T13:00:23.296Z,32.59
2023-08-25T13:02:23.328Z,32.58
2023-08-25T13:04:23.276Z,32.59
2023-08-25T13:06:23.264Z,32.38
2023-08-25T13:08:23.554Z,32.44
2023-08-25T13:10:23.253Z,32.07
2023-08-25T13:12:23.262Z,31.61
2023-08-25T13:15:18.756Z,31.82
2023-08-25T13:17:18.520Z,31.52
2023-08-25T13:19:18.529Z,31.8
2023-08-25T13:21:18.507Z,32.1
2023-08-25T13:23:31.323Z,32.09
2023-08-25T13:25:18.475Z,32.27
2023-08-25T13:27:18.523Z,32.35
2023-08-25T13:30:20.205Z,32.33
2023-08-25T13:32:20.551Z,31.74
2023-08-25T13:34:20.195Z,31.52
2023-08-25T13:36:20.217Z,31.61
2023-08-25T13:38:20.289Z,31.77
2023-08-25T13:40:20.207Z,32.05
2023-08-25T13:42:20.217Z,31.95
2023-08-25T13:46:12.522Z,31.86
2023-08-25T13:48:12.274Z,31.78
2023-08-25T13:50:12.245Z,32
2023-08-25T13:52:12.327Z,32.13
2023-08-25T13:54:12.233Z,32.18
2023-08-25T13:56:12.248Z,32.08
2023-08-25T13:58:12.579Z,32.13
2023-08-25T14:00:44.460Z,32.22
2023-08-25T14:02:44.521Z,32.25
2023-08-25T14:04:44.546Z,32.24
2023-08-25T14:06:44.549Z,32.14
2023-08-25T14:08:44.524Z,32.24
2023-08-25T14:10:44.652Z,32.23
2023-08-25T14:12:44.449Z,32.29
2023-08-25T14:16:16.151Z,32.11
2023-08-25T14:18:16.138Z,32.08
2023-08-25T14:20:16.150Z,32.04
2023-08-25T14:22:16.323Z,31.98
2023-08-25T14:24:16.141Z,31.91
2023-08-25T14:26:16.154Z,31.86
2023-08-25T14:28:16.290Z,31.71
2023-08-25T14:31:15.087Z,31.57
2023-08-25T14:33:15.071Z,31.53
2023-08-25T14:35:15.090Z,31.43
2023-08-25T14:37:15.081Z,31.3
2023-08-25T14:39:15.029Z,31.16
2023-08-25T14:41:15.039Z,31.04
2023-08-25T14:43:15.053Z,31.12
2023-08-25T14:46:54.623Z,31.1
2023-08-25T14:48:54.226Z,31.01
2023-08-25T14:50:54.248Z,30.92
2023-08-25T14:52:54.369Z,30.9
2023-08-25T14:54:54.269Z,30.87
2023-08-25T14:56:54.243Z,30.8
2023-08-25T14:58:54.512Z,30.83
2023-08-25T15:01:50.648Z,30.82
2023-08-25T15:03:50.764Z,30.69
2023-08-25T15:05:50.769Z,30.56
2023-08-25T15:07:50.648Z,30.44
2023-08-25T15:09:50.675Z,30.4
2023-08-25T15:11:50.715Z,30.32
2023-08-25T15:13:50.644Z,30.28
2023-08-25T15:17:12.459Z,30.15
2023-08-25T15:19:12.418Z,30.2
2023-08-25T15:21:12.458Z,30.2
2023-08-25T15:23:12.411Z,30.11
2023-08-25T15:25:12.467Z,30.07
2023-08-25T15:27:12.635Z,29.96
2023-08-25T15:29:12.610Z,29.85
2023-08-25T15:32:04.037Z,29.67
2023-08-25T15:34:04.158Z,29.56
2023-08-25T15:36:04.039Z,29.54
2023-08-25T15:38:04.095Z,29.37
2023-08-25T15:40:04.166Z,29.22
2023-08-25T15:42:04.080Z,29.21
2023-08-25T15:44:04.032Z,29.11
2023-08-25T15:47:07.868Z,28.98
2023-08-25T15:49:07.881Z,28.85
2023-08-25T15:51:08.055Z,28.8
2023-08-25T15:53:07.861Z,28.76
2023-08-25T15:55:07.897Z,28.66
2023-08-25T15:57:08.168Z,28.38
2023-08-25T15:59:07.835Z,28.32
2023-08-25T16:02:45.620Z,28.3
2023-08-25T16:04:45.527Z,28.21
2023-08-25T16:06:45.525Z,28.17
2023-08-25T16:08:45.872Z,28.14
2023-08-25T16:10:45.960Z,28.11
2023-08-25T16:12:45.513Z,28.02
2023-08-25T16:14:45.538Z,27.86
2023-08-25T16:17:02.123Z,27.74
2023-08-25T16:19:02.047Z,27.64
2023-08-25T16:21:02.040Z,27.56
2023-08-25T16:23:02.022Z,27.48
2023-08-25T16:25:02.034Z,27.4
2023-08-25T16:27:02.102Z,27.29
2023-08-25T16:29:02.067Z,27.25
2023-08-25T16:31:02.075Z,27.19
2023-08-25T16:33:06.994Z,27.1
2023-08-25T16:35:06.916Z,27.03
2023-08-25T16:37:06.880Z,26.95
2023-08-25T16:39:06.949Z,26.87
2023-08-25T16:41:06.907Z,26.79
2023-08-25T16:43:06.897Z,26.71
2023-08-25T16:45:06.899Z,26.64
2023-08-25T16:47:38.469Z,26.56
2023-08-25T16:49:38.424Z,26.49
2023-08-25T16:51:38.493Z,26.4
2023-08-25T16:53:38.398Z,26.37
2023-08-25T16:55:38.383Z,26.31
2023-08-25T16:57:38.550Z,26.28
2023-08-25T16:59:38.409Z,26.15
2023-08-25T17:03:09.823Z,26.04
2023-08-25T17:05:09.572Z,26.01
2023-08-25T17:07:09.528Z,25.89
2023-08-25T17:09:09.607Z,25.75
2023-08-25T17:11:09.557Z,25.63
2023-08-25T17:13:09.531Z,25.45
2023-08-25T17:15:09.552Z,25.47
2023-08-25T17:18:22.475Z,25.47
2023-08-25T17:20:22.732Z,25.32
2023-08-25T17:22:22.493Z,25.33
2023-08-25T17:24:22.424Z,25.24
2023-08-25T17:26:22.483Z,25.21
2023-08-25T17:28:22.443Z,25.2
2023-08-25T17:30:22.444Z,25.12
2023-08-25T17:33:44.306Z,25.06
2023-08-25T17:35:44.255Z,24.97
2023-08-25T17:37:44.122Z,24.94
2023-08-25T17:39:45.968Z,24.77
2023-08-25T17:41:44.205Z,24.83
2023-08-25T17:43:44.091Z,24.86
2023-08-25T17:45:44.138Z,24.76
2023-08-25T17:48:26.356Z,24.68
2023-08-25T17:50:26.434Z,24.6
2023-08-25T17:52:26.601Z,24.63
2023-08-25T17:54:26.309Z,24.61
2023-08-25T17:56:26.318Z,24.58
2023-08-25T17:58:26.649Z,24.48
2023-08-25T18:00:26.321Z,24.5
2023-08-25T18:03:18.854Z,24.46
2023-08-25T18:05:17.141Z,24.45
2023-08-25T18:07:18.194Z,24.44
2023-08-25T18:09:17.492Z,24.43
2023-08-25T18:11:17.499Z,24.41
2023-08-25T18:13:17.531Z,24.39
2023-08-25T18:15:17.099Z,24.36
2023-08-25T18:17:20.744Z,24.31
2023-08-25T18:19:19.233Z,24.24
2023-08-25T18:21:18.959Z,24.2
2023-08-25T18:23:18.971Z,24.15
2023-08-25T18:25:18.909Z,24.1
2023-08-25T18:27:20.066Z,23.98
2023-08-25T18:29:18.982Z,23.85
2023-08-25T18:31:20.310Z,23.94
2023-08-25T18:34:17.369Z,23.95
2023-08-25T18:36:17.298Z,23.89
2023-08-25T18:38:17.427Z,23.9
2023-08-25T18:40:17.438Z,23.87
2023-08-25T18:42:17.354Z,23.84
2023-08-25T18:44:17.315Z,23.76
2023-08-25T18:46:17.439Z,23.74
2023-08-25T18:49:11.854Z,23.69
2023-08-25T18:51:11.466Z,23.66
2023-08-25T18:53:11.455Z,23.64
2023-08-25T18:55:12.379Z,23.64
2023-08-25T18:57:11.600Z,23.62
2023-08-25T18:59:11.458Z,23.58
2023-08-25T19:01:11.701Z,23.53
2023-08-25T19:04:36.519Z,23.47
2023-08-25T19:06:36.257Z,23.44
2023-08-25T19:08:36.257Z,23.42
2023-08-25T19:10:36.276Z,23.4
2023-08-25T19:12:36.367Z,23.38
2023-08-25T19:14:36.288Z,23.34
2023-08-25T19:16:37.062Z,23.37
2023-08-25T19:19:38.266Z,23.36
2023-08-25T19:21:36.489Z,23.36
2023-08-25T19:23:36.639Z,23.34
2023-08-25T19:25:36.549Z,23.33
2023-08-25T19:27:37.115Z,23.31
2023-08-25T19:29:36.531Z,23.29
2023-08-25T19:31:36.740Z,23.26
2023-08-25T19:35:11.918Z,23.27
2023-08-25T19:37:11.826Z,23.24
2023-08-25T19:39:11.873Z,23.26
2023-08-25T19:41:12.145Z,23.22
2023-08-25T19:43:11.908Z,23.19
2023-08-25T19:45:11.960Z,23.17
2023-08-25T19:47:12.162Z,23.14
2023-08-25T19:50:23.429Z,23.12
2023-08-25T19:52:23.469Z,23.12
2023-08-25T19:54:23.329Z,23.06
2023-08-25T19:56:23.380Z,23.09
2023-08-25T19:58:23.650Z,23.06
2023-08-25T20:00:23.338Z,23.05
2023-08-25T20:02:23.373Z,23.07
2023-08-25T20:04:45.716Z,23.1
2023-08-25T20:06:45.712Z,23.07
2023-08-25T20:08:45.697Z,23.11
2023-08-25T20:10:45.903Z,23.08
2023-08-25T20:12:45.700Z,23.03
2023-08-25T20:14:45.707Z,23.07
2023-08-25T20:16:45.797Z,23.04
2023-08-25T20:18:45.737Z,23.05
2023-08-25T20:20:43.810Z,22.99
2023-08-25T20:22:43.845Z,22.97
2023-08-25T20:24:43.811Z,22.93
2023-08-25T20:26:43.774Z,22.89
2023-08-25T20:28:43.934Z,22.89
2023-08-25T20:30:43.909Z,22.91
2023-08-25T20:32:43.846Z,22.97
2023-08-25T20:35:15.020Z,22.94
2023-08-25T20:37:14.942Z,22.89
2023-08-25T20:39:15.124Z,22.84
2023-08-25T20:41:14.933Z,22.83
2023-08-25T20:43:15.067Z,22.81
2023-08-25T20:45:15.026Z,22.86
2023-08-25T20:47:14.960Z,22.85
2023-08-25T20:50:49.770Z,22.86
2023-08-25T20:52:49.749Z,22.83
2023-08-25T20:54:49.729Z,22.77
2023-08-25T20:56:49.716Z,22.75
2023-08-25T20:58:49.730Z,22.74
2023-08-25T21:00:49.895Z,22.72
2023-08-25T21:02:49.797Z,22.69
2023-08-25T21:05:57.658Z,22.65
2023-08-25T21:07:57.609Z,22.62
2023-08-25T21:09:57.582Z,22.59
2023-08-25T21:11:57.764Z,22.56
2023-08-25T21:13:58.836Z,22.51
2023-08-25T21:15:57.599Z,22.54
2023-08-25T21:17:57.706Z,22.52
2023-08-25T21:20:53.222Z,22.46
2023-08-25T21:22:53.339Z,22.42
2023-08-25T21:24:53.126Z,22.38
2023-08-25T21:26:53.333Z,22.39
2023-08-25T21:28:53.380Z,22.4
2023-08-25T21:30:53.197Z,22.33
2023-08-25T21:32:54.616Z,22.37
2023-08-25T21:36:36.382Z,22.37
2023-08-25T21:38:35.709Z,22.36
2023-08-25T21:40:36.413Z,22.32
2023-08-25T21:42:35.857Z,22.35
2023-08-25T21:44:35.648Z,22.34
2023-08-25T21:46:35.737Z,22.33
2023-08-25T21:48:35.667Z,22.34
2023-08-25T21:51:44.729Z,22.29
2023-08-25T21:53:45.274Z,22.26
2023-08-25T21:55:44.713Z,22.21
2023-08-25T21:57:44.761Z,22.16
2023-08-25T21:59:44.951Z,22.2
2023-08-25T22:01:44.693Z,22.17
2023-08-25T22:03:44.775Z,22.16
2023-08-25T22:06:15.083Z,22.15
2023-08-25T22:08:14.926Z,22.14
2023-08-25T22:10:14.965Z,22.11
2023-08-25T22:12:15.108Z,22.08
2023-08-25T22:14:14.973Z,22.09
2023-08-25T22:16:14.969Z,22.09
2023-08-25T22:18:15.013Z,22.08
2023-08-25T22:21:44.992Z,22.06
2023-08-25T22:23:44.979Z,22.04
2023-08-25T22:25:45.258Z,22
2023-08-25T22:27:44.981Z,21.96
2023-08-25T22:29:45.145Z,21.95
2023-08-25T22:31:45.180Z,21.96
2023-08-25T22:36:56.897Z,21.94
2023-08-25T22:38:56.778Z,21.87
2023-08-25T22:40:56.905Z,21.9
2023-08-25T22:42:57.210Z,21.86
2023-08-25T22:44:56.825Z,21.87
2023-08-25T22:46:56.769Z,21.82
2023-08-25T22:48:56.836Z,21.78
2023-08-25T22:51:31.754Z,21.78
2023-08-25T22:53:31.947Z,21.81
2023-08-25T22:55:31.813Z,21.8
2023-08-25T22:57:31.739Z,21.78
2023-08-25T22:59:32.987Z,21.76
2023-08-25T23:01:31.811Z,21.72
2023-08-25T23:03:31.687Z,21.78
2023-08-25T23:05:32.424Z,21.73
2023-08-25T23:07:28.858Z,21.7
2023-08-25T23:09:28.805Z,21.64
2023-08-25T23:11:28.934Z,21.64
2023-08-25T23:13:28.959Z,21.57
2023-08-25T23:15:28.930Z,21.53
2023-08-25T23:17:29.041Z,21.52
2023-08-25T23:19:28.922Z,21.52
2023-08-25T23:22:05.954Z,21.44
2023-08-25T23:24:05.956Z,21.39
2023-08-25T23:26:05.940Z,21.38
2023-08-25T23:28:06.025Z,21.35
2023-08-25T23:30:06.352Z,21.34
2023-08-25T23:32:05.950Z,21.31
2023-08-25T23:34:05.980Z,21.29
2023-08-25T23:37:33.580Z,21.22
2023-08-25T23:39:33.555Z,21.18
2023-08-25T23:41:33.529Z,21.2
2023-08-25T23:43:33.534Z,21.18
2023-08-25T23:45:33.748Z,21.16
2023-08-25T23:47:33.566Z,21.18
2023-08-25T23:49:34.129Z,21.13
2023-08-25T23:52:27.184Z,21.13
2023-08-25T23:54:27.324Z,21.1
2023-08-25T23:56:27.197Z,21.07
2023-08-25T23:58:27.370Z,21.09
